Time;durP1;ratioP1;P1;durP2;ratioP2;P2;SDS_P1;SDS_P2;PMS_P1;PMS_P2;Temp;Humidity;BMP_temperature;BMP_pressure;BME280_temperature;BME280_humidity;BME280_pressure;Samples;Min_cycle;Max_cycle;Signal;HPM_P1;HPM_P2
2021/06/30 00:02:15;;;;;;;35.50;10.23;;;;;;;;;;5065402;28;20017;-74
2021/06/30 00:04:41;;;;;;;32.85;9.30;;;;;;;;;;5054198;28;20048;-70
2021/06/30 00:07:07;;;;;;;36.80;9.05;;;;;;;;;;5067525;28;20481;-70
2021/06/30 00:09:34;;;;;;;31.95;9.82;;;;;;;;;;5065236;28;20384;-70
2021/06/30 00:12:00;;;;;;;35.38;9.90;;;;;;;;;;5067360;28;20377;-70
2021/06/30 00:14:26;;;;;;;47.42;11.02;;;;;;;;;;5067095;28;20020;-70
2021/06/30 00:16:52;;;;;;;38.70;10.32;;;;;;;;;;5057572;28;20029;-70
2021/06/30 00:19:19;;;;;;;41.97;10.05;;;;;;;;;;5044012;28;20020;-70
2021/06/30 00:21:45;;;;;;;34.75;9.00;;;;;;;;;;5065871;28;20070;-70
2021/06/30 00:24:11;;;;;;;33.88;9.45;;;;;;;;;;5067052;28;20025;-70
2021/06/30 00:26:38;;;;;;;40.92;9.02;;;;;;;;;;5066456;28;20013;-70
2021/06/30 00:29:08;;;;;;;36.35;9.00;;;;;;;;;;5066659;28;20037;-70
2021/06/30 00:31:36;;;;;;;36.30;8.98;;;;;;;;;;5064622;28;20033;-70
2021/06/30 00:34:03;;;;;;;38.53;9.57;;;;;;;;;;5061792;28;20048;-70
2021/06/30 00:36:36;;;;;;;41.50;10.00;;;;;;;;;;5063160;28;20040;-70
2021/06/30 00:39:04;;;;;;;35.58;9.68;;;;;;;;;;5066324;28;20086;-70
2021/06/30 00:41:31;;;;;;;41.13;9.40;;;;;;;;;;5062610;28;20063;-70
2021/06/30 00:43:57;;;;;;;38.22;10.27;;;;;;;;;;5064934;28;20484;-70
2021/06/30 00:46:24;;;;;;;36.17;9.60;;;;;;;;;;5065765;28;20507;-71
2021/06/30 00:48:50;;;;;;;42.25;10.05;;;;;;;;;;5066003;28;20028;-70
2021/06/30 00:51:16;;;;;;;39.38;10.68;;;;;;;;;;5066551;28;20064;-70
2021/06/30 00:53:42;;;;;;;36.22;8.65;;;;;;;;;;5064121;28;20043;-70
2021/06/30 00:56:08;;;;;;;34.55;9.00;;;;;;;;;;5066166;28;20044;-71
2021/06/30 00:58:34;;;;;;;43.88;10.45;;;;;;;;;;5066530;28;20016;-70
2021/06/30 01:01:01;;;;;;;33.53;9.18;;;;;;;;;;5064138;28;20017;-70
2021/06/30 01:03:27;;;;;;;28.38;9.48;;;;;;;;;;5062462;28;20087;-70
2021/06/30 01:05:53;;;;;;;40.40;9.43;;;;;;;;;;5065993;28;20024;-69
2021/06/30 01:08:19;;;;;;;35.55;9.50;;;;;;;;;;5057943;28;20025;-70
2021/06/30 01:10:45;;;;;;;30.60;8.57;;;;;;;;;;5063755;28;20036;-70
2021/06/30 01:13:11;;;;;;;37.28;10.10;;;;;;;;;;5066207;28;20019;-70
2021/06/30 01:15:57;;;;;;;37.63;9.93;;;;;;;;;;5057154;28;20040;-70
2021/06/30 01:18:23;;;;;;;36.75;10.38;;;;;;;;;;5066903;28;20024;-70
2021/06/30 01:20:50;;;;;;;39.30;11.38;;;;;;;;;;5064454;28;20035;-70
2021/06/30 01:23:16;;;;;;;30.92;9.60;;;;;;;;;;5065368;28;20071;-70
2021/06/30 01:25:43;;;;;;;37.92;9.73;;;;;;;;;;5065949;28;20131;-71
2021/06/30 01:28:09;;;;;;;33.05;10.02;;;;;;;;;;5056429;28;20102;-70
2021/06/30 01:30:35;;;;;;;37.83;8.80;;;;;;;;;;5060848;28;20027;-70
2021/06/30 01:33:02;;;;;;;32.80;8.73;;;;;;;;;;5064427;28;20150;-70
2021/06/30 01:35:28;;;;;;;35.17;10.02;;;;;;;;;;5065933;28;20064;-70
2021/06/30 01:37:55;;;;;;;40.00;10.02;;;;;;;;;;5064689;28;20024;-70
2021/06/30 01:40:21;;;;;;;31.38;9.43;;;;;;;;;;5064382;28;20039;-70
2021/06/30 01:42:48;;;;;;;34.13;9.32;;;;;;;;;;5047468;28;20492;-70
2021/06/30 01:45:14;;;;;;;46.65;9.82;;;;;;;;;;5064099;28;20031;-70
2021/06/30 01:47:41;;;;;;;40.72;10.73;;;;;;;;;;5065493;28;20099;-70
2021/06/30 01:50:08;;;;;;;44.20;8.90;;;;;;;;;;5065737;28;20039;-70
2021/06/30 01:52:35;;;;;;;38.60;10.10;;;;;;;;;;5063255;28;20574;-70
2021/06/30 01:55:01;;;;;;;35.10;9.57;;;;;;;;;;5062162;28;20049;-70
2021/06/30 01:57:27;;;;;;;55.80;10.63;;;;;;;;;;5065921;28;20028;-70
2021/06/30 01:59:53;;;;;;;34.40;9.13;;;;;;;;;;5064868;28;20021;-70
2021/06/30 02:02:20;;;;;;;36.53;10.10;;;;;;;;;;5065938;28;20031;-70
2021/06/30 02:04:54;;;;;;;37.90;10.13;;;;;;;;;;5064179;28;20024;-70
2021/06/30 02:07:20;;;;;;;32.47;9.23;;;;;;;;;;5039866;28;20405;-70
2021/06/30 02:09:46;;;;;;;33.55;10.02;;;;;;;;;;5064806;28;20032;-71
2021/06/30 02:12:12;;;;;;;45.35;10.90;;;;;;;;;;5065835;28;20029;-70
2021/06/30 02:14:39;;;;;;;37.83;9.27;;;;;;;;;;5063569;28;20027;-70
2021/06/30 02:17:05;;;;;;;33.15;9.88;;;;;;;;;;5065046;28;20025;-70
2021/06/30 02:19:31;;;;;;;33.00;9.57;;;;;;;;;;5065177;28;20111;-70
2021/06/30 02:21:58;;;;;;;33.30;10.25;;;;;;;;;;5062892;28;20227;-70
2021/06/30 02:24:24;;;;;;;39.15;10.55;;;;;;;;;;5060903;28;20024;-70
2021/06/30 02:26:50;;;;;;;39.17;10.52;;;;;;;;;;5064027;28;20020;-70
2021/06/30 02:29:16;;;;;;;35.80;9.75;;;;;;;;;;5064631;28;20063;-73
2021/06/30 02:31:42;;;;;;;32.72;10.20;;;;;;;;;;5065559;28;20399;-70
2021/06/30 02:34:08;;;;;;;38.13;10.63;;;;;;;;;;5047169;28;20484;-70
2021/06/30 02:36:35;;;;;;;34.08;9.82;;;;;;;;;;5059658;28;20460;-70
2021/06/30 02:39:01;;;;;;;29.58;8.85;;;;;;;;;;5047224;28;20105;-70
2021/06/30 02:41:27;;;;;;;36.92;11.32;;;;;;;;;;5064136;28;20174;-70
2021/06/30 02:43:53;;;;;;;36.97;10.18;;;;;;;;;;5064611;28;20039;-70
2021/06/30 02:46:19;;;;;;;38.30;10.98;;;;;;;;;;5062985;28;20048;-70
2021/06/30 02:48:45;;;;;;;32.50;9.85;;;;;;;;;;5065489;28;20104;-70
2021/06/30 02:51:13;;;;;;;36.80;9.75;;;;;;;;;;5067308;28;20013;-70
2021/06/30 02:53:39;;;;;;;37.35;10.32;;;;;;;;;;5068687;28;20032;-71
2021/06/30 02:56:05;;;;;;;31.58;10.75;;;;;;;;;;5066927;28;20040;-70
2021/06/30 02:58:32;;;;;;;33.67;9.93;;;;;;;;;;5068479;28;20020;-71
2021/06/30 03:00:58;;;;;;;42.67;11.32;;;;;;;;;;5050416;28;20021;-70
2021/06/30 03:03:25;;;;;;;37.05;12.13;;;;;;;;;;5057732;28;20070;-70
2021/06/30 03:05:51;;;;;;;32.65;9.95;;;;;;;;;;5058257;28;20028;-70
2021/06/30 03:08:17;;;;;;;33.55;10.25;;;;;;;;;;5040907;28;20050;-70
2021/06/30 03:10:43;;;;;;;30.08;10.00;;;;;;;;;;5062518;28;20087;-70
2021/06/30 03:13:09;;;;;;;32.70;10.75;;;;;;;;;;5059805;28;20108;-70
2021/06/30 03:15:35;;;;;;;40.97;11.48;;;;;;;;;;5062582;28;20527;-70
2021/06/30 03:18:02;;;;;;;40.42;10.95;;;;;;;;;;5062300;28;20032;-70
2021/06/30 03:20:28;;;;;;;32.60;10.85;;;;;;;;;;5061251;28;20040;-70
2021/06/30 03:22:54;;;;;;;34.70;10.68;;;;;;;;;;5062669;28;20116;-70
2021/06/30 03:25:20;;;;;;;35.33;9.85;;;;;;;;;;5063104;28;20257;-70
2021/06/30 03:27:46;;;;;;;39.40;10.43;;;;;;;;;;5062382;28;20119;-71
2021/06/30 03:30:13;;;;;;;33.95;11.57;;;;;;;;;;5061676;28;20408;-70
2021/06/30 03:32:39;;;;;;;34.63;10.63;;;;;;;;;;5063149;28;20021;-70
2021/06/30 03:35:06;;;;;;;32.38;11.57;;;;;;;;;;5061559;28;20059;-70
2021/06/30 03:37:32;;;;;;;37.20;13.05;;;;;;;;;;5062962;28;20024;-70
2021/06/30 03:39:58;;;;;;;39.85;12.10;;;;;;;;;;5062827;28;20153;-70
2021/06/30 03:42:25;;;;;;;28.17;11.77;;;;;;;;;;5059763;28;20138;-70
2021/06/30 03:44:52;;;;;;;38.67;12.32;;;;;;;;;;5051844;28;20044;-70
2021/06/30 03:47:18;;;;;;;32.50;11.93;;;;;;;;;;5062329;28;20032;-70
2021/06/30 03:49:45;;;;;;;30.70;11.15;;;;;;;;;;5061310;28;20934;-70
2021/06/30 03:52:11;;;;;;;34.95;12.23;;;;;;;;;;5062354;28;20380;-70
2021/06/30 03:54:37;;;;;;;30.75;11.80;;;;;;;;;;5062458;28;20473;-70
2021/06/30 03:57:03;;;;;;;34.67;11.43;;;;;;;;;;5062214;28;20103;-71
2021/06/30 03:59:29;;;;;;;32.55;10.73;;;;;;;;;;5062270;28;20070;-70
2021/06/30 04:01:56;;;;;;;30.40;10.68;;;;;;;;;;5040828;28;20032;-70
2021/06/30 04:04:24;;;;;;;36.88;11.68;;;;;;;;;;5062465;28;20051;-71
2021/06/30 04:06:50;;;;;;;44.38;11.43;;;;;;;;;;5056128;28;20473;-70
2021/06/30 04:09:17;;;;;;;33.15;11.73;;;;;;;;;;5057226;28;20048;-70
2021/06/30 04:11:43;;;;;;;44.22;12.60;;;;;;;;;;5051269;28;20028;-70
2021/06/30 04:14:09;;;;;;;39.00;12.13;;;;;;;;;;5013782;28;20030;-70
2021/06/30 04:16:36;;;;;;;30.80;11.32;;;;;;;;;;5061051;28;20064;-70
2021/06/30 04:19:03;;;;;;;31.98;11.52;;;;;;;;;;5062359;28;20021;-70
2021/06/30 04:21:29;;;;;;;31.77;11.25;;;;;;;;;;5060303;28;20031;-70
2021/06/30 04:23:55;;;;;;;38.03;11.70;;;;;;;;;;5061409;28;20112;-71
2021/06/30 04:26:21;;;;;;;39.25;11.85;;;;;;;;;;5061500;28;20436;-71
2021/06/30 04:28:48;;;;;;;40.05;12.93;;;;;;;;;;5053545;28;20068;-70
2021/06/30 04:31:14;;;;;;;34.42;11.75;;;;;;;;;;5060406;28;20357;-70
2021/06/30 04:33:41;;;;;;;38.75;12.43;;;;;;;;;;5061957;28;20095;-70
2021/06/30 04:36:07;;;;;;;35.03;13.38;;;;;;;;;;5060103;28;20029;-70
2021/06/30 04:38:33;;;;;;;38.45;12.40;;;;;;;;;;5059665;28;20476;-70
2021/06/30 04:41:00;;;;;;;42.22;13.25;;;;;;;;;;5057969;28;20044;-71
2021/06/30 04:43:26;;;;;;;35.28;13.00;;;;;;;;;;5062176;28;20024;-71
2021/06/30 04:45:52;;;;;;;38.10;12.13;;;;;;;;;;5060429;28;20104;-70
2021/06/30 04:48:19;;;;;;;38.67;13.45;;;;;;;;;;5061552;28;20060;-70
2021/06/30 04:50:46;;;;;;;48.08;13.05;;;;;;;;;;5061009;28;20024;-70
2021/06/30 04:53:13;;;;;;;33.90;12.27;;;;;;;;;;5061805;28;20117;-70
2021/06/30 04:55:39;;;;;;;41.70;13.68;;;;;;;;;;5061428;28;20024;-70
2021/06/30 04:58:08;;;;;;;36.17;12.68;;;;;;;;;;5060574;28;20036;-70
2021/06/30 05:00:35;;;;;;;40.78;13.00;;;;;;;;;;5061892;28;20020;-69
2021/06/30 05:03:01;;;;;;;46.67;12.32;;;;;;;;;;5061117;28;20152;-70
2021/06/30 05:05:28;;;;;;;34.30;12.48;;;;;;;;;;5061650;28;20328;-70
2021/06/30 05:07:55;;;;;;;34.88;11.43;;;;;;;;;;5061634;28;20036;-70
2021/06/30 05:10:21;;;;;;;35.97;11.63;;;;;;;;;;5059338;28;20116;-71
2021/06/30 05:12:47;;;;;;;34.47;11.55;;;;;;;;;;5052596;28;20028;-70
2021/06/30 05:15:13;;;;;;;33.83;11.75;;;;;;;;;;5051963;28;20048;-70
2021/06/30 05:17:39;;;;;;;36.70;11.77;;;;;;;;;;5061148;28;20019;-70
2021/06/30 05:20:06;;;;;;;47.70;12.65;;;;;;;;;;5061094;28;20028;-70
2021/06/30 05:22:32;;;;;;;49.30;12.52;;;;;;;;;;5059719;28;20243;-71
2021/06/30 05:24:58;;;;;;;39.85;12.02;;;;;;;;;;5061092;28;20384;-71
2021/06/30 05:27:24;;;;;;;36.28;11.43;;;;;;;;;;5060997;28;20487;-71
2021/06/30 05:29:51;;;;;;;35.08;11.55;;;;;;;;;;5059492;28;20593;-72
2021/06/30 05:32:17;;;;;;;51.67;13.43;;;;;;;;;;5060993;28;20028;-71
2021/06/30 05:34:43;;;;;;;27.60;10.55;;;;;;;;;;5043489;28;20384;-71
2021/06/30 05:37:09;;;;;;;37.90;11.15;;;;;;;;;;5061031;28;20439;-70
2021/06/30 05:39:35;;;;;;;38.97;9.65;;;;;;;;;;5059689;28;20020;-71
2021/06/30 05:42:01;;;;;;;32.85;9.80;;;;;;;;;;5059908;28;20036;-71
2021/06/30 05:44:28;;;;;;;38.03;11.20;;;;;;;;;;5061206;28;20012;-72
2021/06/30 05:46:54;;;;;;;36.50;11.38;;;;;;;;;;5061644;28;20032;-72
2021/06/30 05:49:20;;;;;;;40.72;11.13;;;;;;;;;;5057992;28;20020;-71
2021/06/30 05:51:46;;;;;;;40.15;11.65;;;;;;;;;;5061380;28;20490;-70
2021/06/30 05:54:12;;;;;;;41.72;13.35;;;;;;;;;;5061272;28;20020;-72
2021/06/30 05:56:39;;;;;;;42.78;12.13;;;;;;;;;;5061077;28;20093;-71
2021/06/30 05:59:06;;;;;;;55.42;16.52;;;;;;;;;;5058003;28;20621;-71
2021/06/30 06:01:32;;;;;;;41.00;13.00;;;;;;;;;;5061472;28;20028;-71
2021/06/30 06:03:59;;;;;;;38.35;15.23;;;;;;;;;;5061328;28;20036;-71
2021/06/30 06:06:25;;;;;;;38.17;13.02;;;;;;;;;;5060917;28;20020;-72
2021/06/30 06:08:51;;;;;;;30.55;11.20;;;;;;;;;;5061474;28;20020;-71
2021/06/30 06:11:17;;;;;;;28.98;11.18;;;;;;;;;;5062440;28;20621;-73
2021/06/30 06:13:47;;;;;;;31.60;10.77;;;;;;;;;;5048019;28;20059;-73
2021/06/30 06:16:15;;;;;;;37.13;11.00;;;;;;;;;;5059115;28;20035;-73
2021/06/30 06:18:41;;;;;;;36.22;10.60;;;;;;;;;;5059003;28;20433;-73
2021/06/30 06:21:07;;;;;;;34.95;11.88;;;;;;;;;;5058193;28;20040;-73
2021/06/30 06:23:34;;;;;;;28.08;10.45;;;;;;;;;;5056424;28;20157;-73
2021/06/30 06:26:00;;;;;;;26.60;10.38;;;;;;;;;;5064550;28;20044;-73
2021/06/30 06:28:30;;;;;;;28.92;11.27;;;;;;;;;;5061810;28;20365;-72
2021/06/30 06:30:56;;;;;;;36.10;11.57;;;;;;;;;;5056434;28;20032;-72
2021/06/30 06:33:23;;;;;;;31.92;10.73;;;;;;;;;;5050824;28;20021;-73
2021/06/30 06:35:49;;;;;;;33.63;10.80;;;;;;;;;;5054792;28;20158;-72
2021/06/30 06:38:16;;;;;;;39.92;11.10;;;;;;;;;;5059469;28;20020;-73
2021/06/30 06:40:42;;;;;;;29.38;10.70;;;;;;;;;;5059051;28;20035;-73
2021/06/30 06:43:09;;;;;;;30.90;10.80;;;;;;;;;;5052229;28;20028;-73
2021/06/30 06:45:35;;;;;;;39.80;11.38;;;;;;;;;;5051024;28;20036;-73
2021/06/30 06:48:02;;;;;;;38.45;11.52;;;;;;;;;;5049079;28;20056;-73
2021/06/30 06:50:28;;;;;;;29.10;10.90;;;;;;;;;;5052206;28;20535;-73
2021/06/30 06:52:54;;;;;;;35.08;10.93;;;;;;;;;;5053443;28;20112;-73
2021/06/30 06:55:23;;;;;;;29.13;11.13;;;;;;;;;;5051241;28;20036;-73
2021/06/30 06:57:49;;;;;;;28.85;10.95;;;;;;;;;;5056311;28;20032;-73
2021/06/30 07:00:15;;;;;;;33.08;12.05;;;;;;;;;;5052780;28;20017;-73
2021/06/30 07:02:41;;;;;;;30.92;11.32;;;;;;;;;;5047742;28;20017;-73
2021/06/30 07:05:08;;;;;;;36.47;12.18;;;;;;;;;;5054771;28;20024;-73
2021/06/30 07:07:40;;;;;;;32.47;12.23;;;;;;;;;;5054082;28;20536;-73
2021/06/30 07:10:07;;;;;;;39.65;12.07;;;;;;;;;;5049281;28;20056;-75
2021/06/30 07:12:33;;;;;;;35.03;11.68;;;;;;;;;;5048201;28;20173;-73
2021/06/30 07:15:01;;;;;;;34.10;12.45;;;;;;;;;;5054801;28;20107;-74
2021/06/30 07:17:27;;;;;;;32.03;12.02;;;;;;;;;;5060204;28;20511;-73
2021/06/30 07:19:54;;;;;;;32.10;11.88;;;;;;;;;;5057817;28;20489;-73
2021/06/30 07:22:20;;;;;;;30.23;11.25;;;;;;;;;;5062416;28;20036;-73
2021/06/30 07:24:46;;;;;;;35.25;12.65;;;;;;;;;;5052453;28;20420;-73
2021/06/30 07:27:13;;;;;;;37.25;13.18;;;;;;;;;;5060114;28;20021;-73
2021/06/30 07:29:39;;;;;;;39.55;12.00;;;;;;;;;;5060691;28;20497;-73
2021/06/30 07:32:05;;;;;;;33.08;12.82;;;;;;;;;;5062746;28;20024;-73
2021/06/30 07:34:31;;;;;;;35.05;12.00;;;;;;;;;;5062798;28;20028;-73
2021/06/30 07:36:58;;;;;;;25.55;11.63;;;;;;;;;;5061667;28;20384;-73
2021/06/30 07:39:24;;;;;;;31.35;11.95;;;;;;;;;;5057036;28;20098;-74
2021/06/30 07:41:55;;;;;;;34.00;12.93;;;;;;;;;;5054719;28;20431;-73
2021/06/30 07:44:21;;;;;;;26.60;10.43;;;;;;;;;;5062801;28;20424;-72
2021/06/30 07:46:48;;;;;;;39.38;14.05;;;;;;;;;;5054893;28;20086;-72
2021/06/30 07:49:14;;;;;;;42.33;14.57;;;;;;;;;;5065555;28;20082;-73
2021/06/30 07:51:40;;;;;;;42.20;13.25;;;;;;;;;;5044453;28;20029;-74
2021/06/30 07:54:06;;;;;;;40.55;13.25;;;;;;;;;;5061077;28;20020;-74
2021/06/30 07:56:38;;;;;;;37.58;13.85;;;;;;;;;;5048272;28;20028;-73
2021/06/30 07:59:08;;;;;;;39.85;13.40;;;;;;;;;;5060936;28;20028;-74
2021/06/30 08:01:34;;;;;;;34.05;13.30;;;;;;;;;;5062491;28;20023;-73
2021/06/30 08:04:01;;;;;;;31.63;12.32;;;;;;;;;;5061122;28;20051;-76
2021/06/30 08:06:28;;;;;;;36.25;11.65;;;;;;;;;;5061842;28;20021;-76
2021/06/30 08:08:54;;;;;;;29.77;11.93;;;;;;;;;;5052831;28;20021;-74
2021/06/30 08:11:23;;;;;;;27.33;10.60;;;;;;;;;;5051857;28;20526;-74
2021/06/30 08:13:53;;;;;;;28.05;11.48;;;;;;;;;;5062152;28;20396;-73
2021/06/30 08:16:20;;;;;;;29.58;10.02;;;;;;;;;;5060249;28;20488;-74
2021/06/30 08:18:46;;;;;;;38.58;12.23;;;;;;;;;;5062156;28;20034;-74
2021/06/30 08:21:12;;;;;;;33.75;13.45;;;;;;;;;;5060301;28;20104;-74
2021/06/30 08:23:38;;;;;;;36.58;15.23;;;;;;;;;;5052091;28;20032;-74
2021/06/30 08:26:08;;;;;;;38.70;14.40;;;;;;;;;;5060235;28;20028;-74
2021/06/30 08:28:34;;;;;;;31.98;13.77;;;;;;;;;;5061464;28;20609;-74
2021/06/30 08:31:00;;;;;;;38.85;12.90;;;;;;;;;;5061315;28;20032;-76
2021/06/30 08:33:26;;;;;;;39.70;12.98;;;;;;;;;;5063954;28;20016;-77
2021/06/30 08:35:55;;;;;;;33.90;13.10;;;;;;;;;;5061712;28;20040;-75
2021/06/30 08:38:21;;;;;;;32.83;13.50;;;;;;;;;;5049857;28;20037;-74
2021/06/30 08:40:47;;;;;;;37.13;12.98;;;;;;;;;;5057455;28;20199;-73
2021/06/30 08:43:15;;;;;;;39.97;12.95;;;;;;;;;;5061290;28;20059;-73
2021/06/30 08:45:42;;;;;;;34.75;12.55;;;;;;;;;;5059610;28;20040;-74
2021/06/30 08:48:09;;;;;;;42.47;13.90;;;;;;;;;;5061364;28;20047;-75
2021/06/30 08:50:37;;;;;;;34.47;12.52;;;;;;;;;;5056577;28;20033;-75
2021/06/30 08:53:04;;;;;;;33.38;12.18;;;;;;;;;;5052195;28;20069;-75
2021/06/30 08:55:30;;;;;;;34.03;11.93;;;;;;;;;;5060949;28;20031;-75
2021/06/30 08:57:56;;;;;;;44.03;11.65;;;;;;;;;;5061316;28;20078;-74
2021/06/30 09:00:23;;;;;;;29.35;11.30;;;;;;;;;;5061103;28;20036;-74
2021/06/30 09:02:56;;;;;;;34.42;12.27;;;;;;;;;;5061116;28;20468;-75
2021/06/30 09:07:52;;;;;;;45.38;12.80;;;;;;;;;;5050358;28;20032;-75
2021/06/30 09:10:36;;;;;;;33.17;11.50;;;;;;;;;;5059496;28;20046;-73
2021/06/30 09:13:03;;;;;;;27.55;10.68;;;;;;;;;;5058927;28;20028;-74
2021/06/30 09:15:34;;;;;;;35.58;11.90;;;;;;;;;;5061248;28;20028;-74
2021/06/30 09:18:21;;;;;;;38.70;12.52;;;;;;;;;;5061071;28;20025;-74
2021/06/30 09:20:47;;;;;;;36.72;12.77;;;;;;;;;;5046395;28;20732;-74
2021/06/30 09:23:14;;;;;;;43.08;12.57;;;;;;;;;;5058705;28;20035;-74
2021/06/30 09:25:41;;;;;;;34.13;12.13;;;;;;;;;;5060891;28;20020;-74
2021/06/30 09:28:43;;;;;;;38.63;11.90;;;;;;;;;;5083361;27;20323;-76
2021/06/30 09:31:10;;;;;;;28.02;10.05;;;;;;;;;;5075290;28;20502;-75
2021/06/30 09:33:46;;;;;;;28.70;11.65;;;;;;;;;;5078403;28;20032;-75
2021/06/30 09:36:15;;;;;;;28.90;10.90;;;;;;;;;;5078751;28;20020;-76
2021/06/30 09:38:43;;;;;;;43.60;13.15;;;;;;;;;;5078305;28;20537;-75
2021/06/30 09:41:16;;;;;;;36.90;12.05;;;;;;;;;;5078194;28;20035;-76
2021/06/30 09:43:43;;;;;;;30.73;11.95;;;;;;;;;;5077219;28;20155;-74
2021/06/30 09:46:19;;;;;;;30.23;11.05;;;;;;;;;;5076678;28;20488;-75
2021/06/30 09:48:53;;;;;;;27.33;10.50;;;;;;;;;;5071625;28;20036;-75
2021/06/30 09:51:19;;;;;;;27.30;10.90;;;;;;;;;;5077918;28;20032;-75
2021/06/30 09:53:45;;;;;;;34.83;12.27;;;;;;;;;;5078536;28;20162;-75
2021/06/30 09:56:34;;;;;;;35.13;10.88;;;;;;;;;;5076370;28;20020;-74
2021/06/30 09:59:21;;;;;;;29.20;11.82;;;;;;;;;;5077807;28;20522;-76
2021/06/30 10:01:52;;;;;;;29.48;12.93;;;;;;;;;;5077441;28;20511;-75
2021/06/30 10:04:30;;;;;;;40.05;12.30;;;;;;;;;;5077893;28;20034;-75
2021/06/30 10:07:01;;;;;;;37.97;11.40;;;;;;;;;;5076468;28;20039;-74
2021/06/30 10:09:27;;;;;;;32.78;11.05;;;;;;;;;;5062388;28;20025;-74
2021/06/30 10:12:05;;;;;;;34.25;11.98;;;;;;;;;;5057320;28;20450;-73
2021/06/30 10:14:31;;;;;;;35.15;15.70;;;;;;;;;;5056671;28;20025;-73
2021/06/30 10:16:58;;;;;;;34.38;12.00;;;;;;;;;;5060175;28;20071;-73
2021/06/30 10:19:25;;;;;;;27.60;16.67;;;;;;;;;;5056816;28;20225;-73
2021/06/30 10:21:51;;;;;;;58.78;35.38;;;;;;;;;;5053713;28;20377;-74
2021/06/30 10:24:18;;;;;;;45.08;26.13;;;;;;;;;;5056975;28;20134;-73
2021/06/30 10:26:44;;;;;;;84.68;61.28;;;;;;;;;;5066979;28;20490;-72
2021/06/30 10:29:10;;;;;;;97.65;75.47;;;;;;;;;;5063297;28;20103;-71
2021/06/30 10:31:38;;;;;;;34.63;16.55;;;;;;;;;;5077157;28;20028;-72
2021/06/30 10:34:08;;;;;;;35.55;20.77;;;;;;;;;;5079255;28;20024;-74
2021/06/30 10:36:47;;;;;;;32.10;14.43;;;;;;;;;;5088418;28;20024;-73
2021/06/30 10:39:14;;;;;;;38.17;12.85;;;;;;;;;;5088641;28;20422;-74
2021/06/30 10:41:40;;;;;;;37.17;10.85;;;;;;;;;;5057475;28;20032;-74
2021/06/30 10:44:15;;;;;;;37.72;11.50;;;;;;;;;;5063034;28;20032;-72
2021/06/30 10:46:42;;;;;;;28.52;10.90;;;;;;;;;;5062908;28;20430;-74
2021/06/30 10:49:14;;;;;;;33.55;10.25;;;;;;;;;;5063367;28;20469;-71
2021/06/30 10:51:44;;;;;;;29.13;10.93;;;;;;;;;;5073543;28;20114;-73
2021/06/30 10:54:29;;;;;;;32.65;12.07;;;;;;;;;;5070706;28;20035;-72
2021/06/30 10:57:18;;;;;;;31.50;10.70;;;;;;;;;;5049861;28;20094;-75
2021/06/30 11:00:04;;;;;;;29.58;10.80;;;;;;;;;;5052362;28;20131;-72
2021/06/30 11:02:32;;;;;;;31.75;10.27;;;;;;;;;;5060699;28;20036;-72
2021/06/30 11:05:14;;;;;;;30.02;9.80;;;;;;;;;;5068806;28;20031;-73
2021/06/30 11:07:40;;;;;;;30.08;9.23;;;;;;;;;;5060215;28;20043;-73
2021/06/30 11:10:16;;;;;;;32.00;9.07;;;;;;;;;;5062544;28;20020;-72
2021/06/30 11:12:51;;;;;;;25.38;9.98;;;;;;;;;;5070201;28;20029;-73
2021/06/30 11:15:39;;;;;;;27.42;10.45;;;;;;;;;;5062477;28;20647;-76
2021/06/30 11:18:14;;;;;;;31.02;10.45;;;;;;;;;;5062937;28;20374;-72
2021/06/30 11:20:48;;;;;;;33.35;10.80;;;;;;;;;;5068403;28;20028;-72
2021/06/30 11:23:18;;;;;;;37.83;11.32;;;;;;;;;;5068003;28;20024;-73
2021/06/30 11:25:45;;;;;;;26.75;10.32;;;;;;;;;;5062223;28;20059;-73
2021/06/30 11:28:33;;;;;;;36.65;13.27;;;;;;;;;;5070104;28;20040;-73
2021/06/30 11:31:00;;;;;;;32.35;12.00;;;;;;;;;;5049823;28;20673;-72
2021/06/30 11:33:26;;;;;;;31.17;11.63;;;;;;;;;;5060615;28;20434;-73
2021/06/30 11:36:02;;;;;;;32.60;11.50;;;;;;;;;;5064018;28;20070;-73
2021/06/30 11:38:29;;;;;;;48.03;12.70;;;;;;;;;;5062283;28;20035;-73
2021/06/30 11:41:08;;;;;;;48.03;10.40;;;;;;;;;;5062188;28;20097;-77
2021/06/30 11:43:41;;;;;;;27.58;9.95;;;;;;;;;;5062475;28;20020;-72
2021/06/30 11:46:07;;;;;;;41.13;10.05;;;;;;;;;;5060510;28;20033;-72
2021/06/30 11:48:36;;;;;;;39.17;11.18;;;;;;;;;;5067966;28;20392;-71
2021/06/30 11:51:03;;;;;;;29.27;10.93;;;;;;;;;;5061062;28;20086;-75
2021/06/30 11:53:39;;;;;;;43.53;10.77;;;;;;;;;;5062014;28;20033;-73
2021/06/30 11:56:06;;;;;;;43.80;12.32;;;;;;;;;;5062333;28;20272;-73
2021/06/30 11:58:40;;;;;;;36.40;10.93;;;;;;;;;;5062202;28;20035;-73
2021/06/30 12:01:15;;;;;;;34.03;10.30;;;;;;;;;;5060298;28;20024;-72
2021/06/30 12:03:41;;;;;;;40.83;9.50;;;;;;;;;;5062940;28;20600;-72
2021/06/30 12:06:21;;;;;;;29.45;9.90;;;;;;;;;;5062290;28;20599;-73
2021/06/30 12:09:04;;;;;;;34.65;10.10;;;;;;;;;;5063673;28;20036;-72
2021/06/30 12:11:31;;;;;;;29.10;9.85;;;;;;;;;;5059859;28;20035;-72
2021/06/30 12:14:04;;;;;;;30.60;9.98;;;;;;;;;;5061719;28;20094;-74
2021/06/30 12:16:49;;;;;;;29.15;9.50;;;;;;;;;;5063507;28;20446;-74
2021/06/30 12:19:17;;;;;;;31.95;9.68;;;;;;;;;;5062728;28;20051;-72
2021/06/30 12:21:44;;;;;;;26.35;8.70;;;;;;;;;;5061327;28;20291;-72
2021/06/30 12:24:18;;;;;;;34.65;9.80;;;;;;;;;;5070001;28;20079;-71
2021/06/30 12:26:56;;;;;;;34.65;9.63;;;;;;;;;;5063587;28;20447;-71
2021/06/30 12:29:22;;;;;;;31.10;9.40;;;;;;;;;;5061577;28;20055;-71
2021/06/30 12:31:48;;;;;;;26.52;8.90;;;;;;;;;;5061189;28;20019;-72
2021/06/30 12:34:14;;;;;;;27.13;8.95;;;;;;;;;;5062693;28;20361;-71
2021/06/30 12:36:44;;;;;;;33.90;10.55;;;;;;;;;;5065386;28;20032;-72
2021/06/30 12:39:25;;;;;;;32.60;9.95;;;;;;;;;;5067973;28;20167;-72
2021/06/30 12:41:51;;;;;;;;;;;;;;;;;;5061954;28;20039;-72
2021/06/30 12:44:17;;;;;;;38.03;10.48;;;;;;;;;;5061054;28;19944;-72
2021/06/30 12:46:44;;;;;;;32.33;10.13;;;;;;;;;;5059289;28;20208;-71
2021/06/30 12:49:16;;;;;;;31.13;10.15;;;;;;;;;;5061042;28;20536;-71
2021/06/30 12:51:44;;;;;;;35.35;9.10;;;;;;;;;;5053453;28;20044;-73
2021/06/30 12:54:10;;;;;;;35.53;9.57;;;;;;;;;;5060414;28;20103;-72
2021/06/30 12:56:45;;;;;;;37.50;9.68;;;;;;;;;;5060080;28;20091;-72
2021/06/30 12:59:15;;;;;;;38.17;9.90;;;;;;;;;;5060831;28;20031;-71
2021/06/30 13:01:42;;;;;;;33.05;9.90;;;;;;;;;;5064040;28;20031;-71
2021/06/30 13:04:09;;;;;;;32.88;9.02;;;;;;;;;;5064227;28;20480;-72
2021/06/30 13:06:36;;;;;;;28.83;9.27;;;;;;;;;;5060778;28;20131;-72
2021/06/30 13:09:10;;;;;;;27.15;8.77;;;;;;;;;;5072774;28;20020;-71
2021/06/30 13:11:42;;;;;;;32.90;9.10;;;;;;;;;;5060557;28;20028;-71
2021/06/30 13:14:17;;;;;;;38.03;11.05;;;;;;;;;;5060357;28;20078;-71
2021/06/30 13:16:57;;;;;;;32.35;9.40;;;;;;;;;;5061718;28;20036;-72
2021/06/30 13:19:27;;;;;;;29.77;9.18;;;;;;;;;;5060135;28;20078;-71
2021/06/30 13:21:54;;;;;;;34.03;9.23;;;;;;;;;;5064122;28;20490;-72
2021/06/30 13:24:25;;;;;;;27.83;10.35;;;;;;;;;;5060294;28;20618;-71
2021/06/30 13:35:23;;;;;;;30.42;9.35;;;;;;;;;;5063932;28;20119;-72
2021/06/30 13:37:50;;;;;;;30.67;9.45;;;;;;;;;;5068318;28;20560;-70
2021/06/30 13:40:17;;;;;;;27.75;8.70;;;;;;;;;;5074368;28;20510;-73
2021/06/30 13:42:43;;;;;;;43.25;9.75;;;;;;;;;;5062033;28;20021;-72
2021/06/30 13:45:09;;;;;;;33.33;9.85;;;;;;;;;;5060246;28;20443;-72
2021/06/30 13:47:35;;;;;;;29.08;9.30;;;;;;;;;;5060801;28;20040;-72
2021/06/30 13:50:01;;;;;;;23.35;9.02;;;;;;;;;;5059972;28;20025;-72
2021/06/30 13:52:27;;;;;;;32.70;10.55;;;;;;;;;;5061438;28;20150;-71
2021/06/30 13:54:54;;;;;;;28.27;9.05;;;;;;;;;;5059745;28;20021;-72
2021/06/30 13:57:20;;;;;;;24.73;8.40;;;;;;;;;;5060646;28;20106;-72
2021/06/30 13:59:46;;;;;;;27.48;8.77;;;;;;;;;;5061147;28;20024;-72
2021/06/30 14:02:12;;;;;;;32.80;9.48;;;;;;;;;;5058962;28;20028;-72
2021/06/30 14:04:38;;;;;;;23.60;9.70;;;;;;;;;;5061120;28;20004;-72
2021/06/30 14:07:04;;;;;;;36.17;10.38;;;;;;;;;;5060824;28;20170;-72
2021/06/30 14:09:30;;;;;;;34.95;9.25;;;;;;;;;;5060936;28;20415;-71
2021/06/30 14:11:56;;;;;;;23.20;9.35;;;;;;;;;;5060762;28;20153;-72
2021/06/30 14:14:23;;;;;;;26.05;9.38;;;;;;;;;;5061337;28;20036;-72
2021/06/30 14:16:50;;;;;;;25.08;9.82;;;;;;;;;;5064324;28;20024;-72
2021/06/30 14:19:16;;;;;;;26.77;10.38;;;;;;;;;;5064244;28;20372;-72
2021/06/30 14:21:42;;;;;;;36.50;10.18;;;;;;;;;;5064706;28;20115;-72
2021/06/30 14:24:08;;;;;;;22.83;9.30;;;;;;;;;;5064627;28;20031;-72
2021/06/30 14:26:35;;;;;;;27.30;9.50;;;;;;;;;;5063510;28;20052;-71
2021/06/30 14:29:01;;;;;;;35.38;9.52;;;;;;;;;;5062511;28;20044;-72
2021/06/30 14:31:27;;;;;;;29.13;9.90;;;;;;;;;;5064107;28;20356;-71
2021/06/30 14:33:54;;;;;;;26.00;9.05;;;;;;;;;;5064560;28;20074;-72
2021/06/30 14:36:20;;;;;;;25.25;8.68;;;;;;;;;;5062624;28;20021;-72
2021/06/30 14:38:47;;;;;;;36.05;9.93;;;;;;;;;;5063776;28;20102;-72